sensor_id;sensor_type;location;lat;lon;timestamp;P1;durP1;ratioP1;P2;durP2;ratioP2
15398;SDS011;7797;51.428;6.756;2022-09-09T00:01:00;2.27;;;1.47;;
15398;SDS011;7797;51.428;6.756;2022-09-09T00:03:47;1.80;;;1.60;;
15398;SDS011;7797;51.428;6.756;2022-09-09T00:06:21;2.57;;;1.63;;
15398;SDS011;7797;51.428;6.756;2022-09-09T00:09:04;3.10;;;1.37;;
15398;SDS011;7797;51.428;6.756;2022-09-09T00:14:18;2.37;;;1.00;;
15398;SDS011;7797;51.428;6.756;2022-09-09T00:16:53;3.43;;;1.10;;
15398;SDS011;7797;51.428;6.756;2022-09-09T00:19:28;2.27;;;1.30;;
15398;SDS011;7797;51.428;6.756;2022-09-09T00:22:16;1.30;;;1.20;;
15398;SDS011;7797;51.428;6.756;2022-09-09T00:24:46;2.60;;;1.00;;
15398;SDS011;7797;51.428;6.756;2022-09-09T00:30:12;1.53;;;1.00;;
15398;SDS011;7797;51.428;6.756;2022-09-09T00:32:40;0.83;;;0.80;;
15398;SDS011;7797;51.428;6.756;2022-09-09T00:37:36;1.17;;;0.90;;
15398;SDS011;7797;51.428;6.756;2022-09-09T00:40:08;1.50;;;0.93;;
15398;SDS011;7797;51.428;6.756;2022-09-09T00:42:45;2.17;;;1.17;;
15398;SDS011;7797;51.428;6.756;2022-09-09T00:45:19;2.30;;;1.10;;
15398;SDS011;7797;51.428;6.756;2022-09-09T00:48:10;3.07;;;0.90;;
15398;SDS011;7797;51.428;6.756;2022-09-09T00:50:57;1.00;;;1.00;;
15398;SDS011;7797;51.428;6.756;2022-09-09T00:56:12;3.33;;;0.90;;
15398;SDS011;7797;51.428;6.756;2022-09-09T00:58:43;1.13;;;1.03;;
15398;SDS011;7797;51.428;6.756;2022-09-09T01:01:26;3.23;;;1.37;;
15398;SDS011;7797;51.428;6.756;2022-09-09T01:03:53;1.90;;;1.70;;
15398;SDS011;7797;51.428;6.756;2022-09-09T01:11:27;3.47;;;1.33;;
15398;SDS011;7797;51.428;6.756;2022-09-09T01:14:05;2.73;;;1.40;;
15398;SDS011;7797;51.428;6.756;2022-09-09T01:16:38;2.23;;;1.20;;
15398;SDS011;7797;51.428;6.756;2022-09-09T01:19:05;2.20;;;1.50;;
15398;SDS011;7797;51.428;6.756;2022-09-09T01:21:55;1.37;;;1.27;;
15398;SDS011;7797;51.428;6.756;2022-09-09T01:24:38;1.73;;;1.63;;
15398;SDS011;7797;51.428;6.756;2022-09-09T01:27:07;2.40;;;1.57;;
15398;SDS011;7797;51.428;6.756;2022-09-09T01:29:35;2.03;;;1.20;;
15398;SDS011;7797;51.428;6.756;2022-09-09T01:35:12;3.03;;;1.57;;
15398;SDS011;7797;51.428;6.756;2022-09-09T01:37:46;3.67;;;1.70;;
15398;SDS011;7797;51.428;6.756;2022-09-09T01:40:13;2.90;;;1.60;;
15398;SDS011;7797;51.428;6.756;2022-09-09T01:42:40;3.07;;;1.57;;
15398;SDS011;7797;51.428;6.756;2022-09-09T01:45:06;1.60;;;1.23;;
15398;SDS011;7797;51.428;6.756;2022-09-09T01:47:34;1.23;;;1.20;;
15398;SDS011;7797;51.428;6.756;2022-09-09T01:50:01;2.93;;;1.47;;
15398;SDS011;7797;51.428;6.756;2022-09-09T01:52:29;1.73;;;1.30;;
15398;SDS011;7797;51.428;6.756;2022-09-09T01:54:57;1.50;;;1.37;;
15398;SDS011;7797;51.428;6.756;2022-09-09T01:57:27;1.40;;;1.30;;
15398;SDS011;7797;51.428;6.756;2022-09-09T02:00:15;1.60;;;1.20;;
15398;SDS011;7797;51.428;6.756;2022-09-09T02:05:31;1.67;;;1.50;;
15398;SDS011;7797;51.428;6.756;2022-09-09T02:08:23;2.30;;;1.53;;
15398;SDS011;7797;51.428;6.756;2022-09-09T02:11:05;1.50;;;1.40;;
15398;SDS011;7797;51.428;6.756;2022-09-09T02:13:34;1.20;;;1.10;;
15398;SDS011;7797;51.428;6.756;2022-09-09T02:16:14;2.27;;;1.50;;
15398;SDS011;7797;51.428;6.756;2022-09-09T02:18:50;1.47;;;1.37;;
15398;SDS011;7797;51.428;6.756;2022-09-09T02:21:21;2.37;;;1.50;;
15398;SDS011;7797;51.428;6.756;2022-09-09T02:23:48;2.13;;;1.43;;
15398;SDS011;7797;51.428;6.756;2022-09-09T02:26:18;1.33;;;1.23;;
15398;SDS011;7797;51.428;6.756;2022-09-09T02:28:48;1.60;;;1.50;;
15398;SDS011;7797;51.428;6.756;2022-09-09T02:31:17;2.17;;;1.47;;
15398;SDS011;7797;51.428;6.756;2022-09-09T02:33:47;2.37;;;1.43;;
15398;SDS011;7797;51.428;6.756;2022-09-09T02:36:18;1.83;;;1.27;;
15398;SDS011;7797;51.428;6.756;2022-09-09T02:38:46;2.07;;;1.23;;
15398;SDS011;7797;51.428;6.756;2022-09-09T02:41:19;3.90;;;1.50;;
15398;SDS011;7797;51.428;6.756;2022-09-09T02:43:48;1.60;;;1.00;;
15398;SDS011;7797;51.428;6.756;2022-09-09T02:51:24;1.37;;;1.17;;
15398;SDS011;7797;51.428;6.756;2022-09-09T02:54:37;2.50;;;1.40;;
15398;SDS011;7797;51.428;6.756;2022-09-09T02:57:07;1.57;;;1.20;;
15398;SDS011;7797;51.428;6.756;2022-09-09T02:59:37;2.77;;;1.40;;
15398;SDS011;7797;51.428;6.756;2022-09-09T03:02:05;1.73;;;1.03;;
15398;SDS011;7797;51.428;6.756;2022-09-09T03:04:32;1.33;;;1.00;;
15398;SDS011;7797;51.428;6.756;2022-09-09T03:06:59;2.87;;;1.40;;
15398;SDS011;7797;51.428;6.756;2022-09-09T03:09:25;1.27;;;1.17;;
15398;SDS011;7797;51.428;6.756;2022-09-09T03:11:52;3.07;;;1.20;;
15398;SDS011;7797;51.428;6.756;2022-09-09T03:14:21;2.17;;;1.20;;
15398;SDS011;7797;51.428;6.756;2022-09-09T03:16:51;1.87;;;1.23;;
15398;SDS011;7797;51.428;6.756;2022-09-09T03:19:18;2.20;;;1.33;;
15398;SDS011;7797;51.428;6.756;2022-09-09T03:21:46;3.20;;;1.43;;
15398;SDS011;7797;51.428;6.756;2022-09-09T03:24:13;1.90;;;1.30;;
15398;SDS011;7797;51.428;6.756;2022-09-09T03:26:40;4.07;;;1.37;;
15398;SDS011;7797;51.428;6.756;2022-09-09T03:29:11;1.97;;;1.00;;
15398;SDS011;7797;51.428;6.756;2022-09-09T03:31:38;6.20;;;1.50;;
15398;SDS011;7797;51.428;6.756;2022-09-09T03:34:06;1.47;;;1.47;;
15398;SDS011;7797;51.428;6.756;2022-09-09T03:36:33;2.40;;;1.77;;
15398;SDS011;7797;51.428;6.756;2022-09-09T03:38:59;3.90;;;1.63;;
15398;SDS011;7797;51.428;6.756;2022-09-09T03:41:27;3.17;;;1.60;;
15398;SDS011;7797;51.428;6.756;2022-09-09T03:43:54;4.17;;;1.57;;
15398;SDS011;7797;51.428;6.756;2022-09-09T03:46:21;1.40;;;1.23;;
15398;SDS011;7797;51.428;6.756;2022-09-09T03:48:50;2.37;;;1.60;;
15398;SDS011;7797;51.428;6.756;2022-09-09T03:51:18;3.20;;;1.57;;
15398;SDS011;7797;51.428;6.756;2022-09-09T03:53:45;2.87;;;1.50;;
15398;SDS011;7797;51.428;6.756;2022-09-09T03:56:12;2.00;;;1.80;;
15398;SDS011;7797;51.428;6.756;2022-09-09T03:58:39;2.27;;;1.57;;
15398;SDS011;7797;51.428;6.756;2022-09-09T04:01:07;3.83;;;1.60;;
15398;SDS011;7797;51.428;6.756;2022-09-09T04:03:36;3.40;;;2.00;;
15398;SDS011;7797;51.428;6.756;2022-09-09T04:06:03;2.40;;;1.83;;
15398;SDS011;7797;51.428;6.756;2022-09-09T04:08:31;2.20;;;1.67;;
15398;SDS011;7797;51.428;6.756;2022-09-09T04:10:58;3.37;;;1.60;;
15398;SDS011;7797;51.428;6.756;2022-09-09T04:13:25;2.87;;;1.53;;
15398;SDS011;7797;51.428;6.756;2022-09-09T04:15:53;3.03;;;1.60;;
15398;SDS011;7797;51.428;6.756;2022-09-09T04:18:21;2.63;;;1.87;;
15398;SDS011;7797;51.428;6.756;2022-09-09T04:20:48;1.70;;;1.60;;
15398;SDS011;7797;51.428;6.756;2022-09-09T04:23:16;2.53;;;1.50;;
15398;SDS011;7797;51.428;6.756;2022-09-09T04:25:45;4.10;;;1.57;;
15398;SDS011;7797;51.428;6.756;2022-09-09T04:28:16;2.73;;;1.47;;
15398;SDS011;7797;51.428;6.756;2022-09-09T04:30:44;2.87;;;1.90;;
15398;SDS011;7797;51.428;6.756;2022-09-09T04:33:11;2.53;;;1.90;;
15398;SDS011;7797;51.428;6.756;2022-09-09T04:35:38;3.00;;;1.43;;
15398;SDS011;7797;51.428;6.756;2022-09-09T04:38:05;3.57;;;1.70;;
15398;SDS011;7797;51.428;6.756;2022-09-09T04:40:35;4.23;;;1.70;;
15398;SDS011;7797;51.428;6.756;2022-09-09T04:43:02;3.50;;;1.63;;
15398;SDS011;7797;51.428;6.756;2022-09-09T04:45:31;2.00;;;1.60;;
15398;SDS011;7797;51.428;6.756;2022-09-09T04:47:57;4.30;;;1.60;;
15398;SDS011;7797;51.428;6.756;2022-09-09T04:50:24;3.97;;;1.63;;
15398;SDS011;7797;51.428;6.756;2022-09-09T04:52:51;2.03;;;1.60;;
15398;SDS011;7797;51.428;6.756;2022-09-09T04:55:18;3.97;;;1.73;;
15398;SDS011;7797;51.428;6.756;2022-09-09T04:57:44;2.70;;;1.80;;
15398;SDS011;7797;51.428;6.756;2022-09-09T05:00:11;6.10;;;2.43;;
15398;SDS011;7797;51.428;6.756;2022-09-09T05:02:39;3.93;;;1.90;;
15398;SDS011;7797;51.428;6.756;2022-09-09T05:05:06;4.67;;;1.80;;
15398;SDS011;7797;51.428;6.756;2022-09-09T05:07:33;2.83;;;1.70;;
15398;SDS011;7797;51.428;6.756;2022-09-09T05:09:59;3.77;;;2.00;;
15398;SDS011;7797;51.428;6.756;2022-09-09T05:12:26;5.27;;;2.20;;
15398;SDS011;7797;51.428;6.756;2022-09-09T05:14:53;3.97;;;1.60;;
15398;SDS011;7797;51.428;6.756;2022-09-09T05:17:19;4.23;;;1.70;;
15398;SDS011;7797;51.428;6.756;2022-09-09T05:19:46;3.57;;;1.70;;
15398;SDS011;7797;51.428;6.756;2022-09-09T05:22:13;3.90;;;1.93;;
15398;SDS011;7797;51.428;6.756;2022-09-09T05:24:39;5.07;;;1.97;;
15398;SDS011;7797;51.428;6.756;2022-09-09T05:27:06;3.17;;;1.90;;
15398;SDS011;7797;51.428;6.756;2022-09-09T05:29:32;2.23;;;1.50;;
15398;SDS011;7797;51.428;6.756;2022-09-09T05:32:02;4.97;;;1.57;;
15398;SDS011;7797;51.428;6.756;2022-09-09T05:34:29;3.93;;;1.70;;
15398;SDS011;7797;51.428;6.756;2022-09-09T05:36:56;4.20;;;1.83;;
15398;SDS011;7797;51.428;6.756;2022-09-09T05:39:22;3.40;;;1.60;;
15398;SDS011;7797;51.428;6.756;2022-09-09T05:41:49;3.57;;;1.70;;
15398;SDS011;7797;51.428;6.756;2022-09-09T05:44:16;2.67;;;1.57;;
15398;SDS011;7797;51.428;6.756;2022-09-09T05:46:42;6.47;;;2.03;;
15398;SDS011;7797;51.428;6.756;2022-09-09T05:49:09;5.47;;;1.97;;
15398;SDS011;7797;51.428;6.756;2022-09-09T05:51:36;4.37;;;1.90;;
15398;SDS011;7797;51.428;6.756;2022-09-09T05:54:03;2.20;;;1.50;;
15398;SDS011;7797;51.428;6.756;2022-09-09T05:56:30;4.57;;;2.07;;
15398;SDS011;7797;51.428;6.756;2022-09-09T05:58:58;4.73;;;1.87;;
15398;SDS011;7797;51.428;6.756;2022-09-09T06:01:33;6.43;;;2.50;;
15398;SDS011;7797;51.428;6.756;2022-09-09T06:04:01;4.13;;;2.00;;
15398;SDS011;7797;51.428;6.756;2022-09-09T06:06:32;2.93;;;2.03;;
15398;SDS011;7797;51.428;6.756;2022-09-09T06:09:03;5.37;;;1.70;;
15398;SDS011;7797;51.428;6.756;2022-09-09T06:11:33;4.47;;;2.03;;
15398;SDS011;7797;51.428;6.756;2022-09-09T06:14:02;5.00;;;1.90;;
15398;SDS011;7797;51.428;6.756;2022-09-09T06:16:29;4.33;;;1.77;;
15398;SDS011;7797;51.428;6.756;2022-09-09T06:18:56;3.70;;;1.83;;
15398;SDS011;7797;51.428;6.756;2022-09-09T06:21:25;2.80;;;1.83;;
15398;SDS011;7797;51.428;6.756;2022-09-09T06:23:56;6.13;;;1.90;;
15398;SDS011;7797;51.428;6.756;2022-09-09T06:26:30;6.50;;;1.90;;
15398;SDS011;7797;51.428;6.756;2022-09-09T06:28:59;4.47;;;1.87;;
15398;SDS011;7797;51.428;6.756;2022-09-09T06:31:27;7.83;;;2.20;;
15398;SDS011;7797;51.428;6.756;2022-09-09T06:33:57;3.80;;;1.80;;
15398;SDS011;7797;51.428;6.756;2022-09-09T06:36:25;3.07;;;1.90;;
15398;SDS011;7797;51.428;6.756;2022-09-09T06:38:52;7.77;;;2.20;;
15398;SDS011;7797;51.428;6.756;2022-09-09T06:41:20;5.40;;;1.83;;
15398;SDS011;7797;51.428;6.756;2022-09-09T06:43:49;4.53;;;1.90;;
15398;SDS011;7797;51.428;6.756;2022-09-09T06:46:17;3.83;;;2.13;;
15398;SDS011;7797;51.428;6.756;2022-09-09T06:48:48;4.83;;;1.93;;
15398;SDS011;7797;51.428;6.756;2022-09-09T06:53:44;5.10;;;1.90;;
15398;SDS011;7797;51.428;6.756;2022-09-09T06:58:47;6.07;;;1.90;;
15398;SDS011;7797;51.428;6.756;2022-09-09T07:01:33;5.33;;;1.80;;
15398;SDS011;7797;51.428;6.756;2022-09-09T07:04:01;5.73;;;2.20;;
15398;SDS011;7797;51.428;6.756;2022-09-09T07:06:31;4.27;;;1.70;;
15398;SDS011;7797;51.428;6.756;2022-09-09T07:08:59;3.37;;;1.70;;
15398;SDS011;7797;51.428;6.756;2022-09-09T07:11:29;6.27;;;1.83;;
15398;SDS011;7797;51.428;6.756;2022-09-09T07:13:57;3.33;;;1.53;;
15398;SDS011;7797;51.428;6.756;2022-09-09T07:16:25;3.60;;;1.50;;
15398;SDS011;7797;51.428;6.756;2022-09-09T07:18:53;3.60;;;2.10;;
15398;SDS011;7797;51.428;6.756;2022-09-09T07:21:27;3.23;;;1.33;;
15398;SDS011;7797;51.428;6.756;2022-09-09T07:23:55;4.30;;;1.60;;
15398;SDS011;7797;51.428;6.756;2022-09-09T07:26:23;3.63;;;1.50;;
15398;SDS011;7797;51.428;6.756;2022-09-09T07:28:52;3.50;;;1.53;;
15398;SDS011;7797;51.428;6.756;2022-09-09T07:31:24;4.90;;;1.40;;
15398;SDS011;7797;51.428;6.756;2022-09-09T07:33:52;3.13;;;1.87;;
15398;SDS011;7797;51.428;6.756;2022-09-09T07:36:20;3.80;;;1.70;;
15398;SDS011;7797;51.428;6.756;2022-09-09T07:38:59;5.03;;;1.50;;
15398;SDS011;7797;51.428;6.756;2022-09-09T07:41:30;4.03;;;1.73;;
15398;SDS011;7797;51.428;6.756;2022-09-09T07:43:58;3.33;;;1.57;;
15398;SDS011;7797;51.428;6.756;2022-09-09T07:46:26;4.63;;;2.00;;
15398;SDS011;7797;51.428;6.756;2022-09-09T07:48:53;3.90;;;1.70;;
15398;SDS011;7797;51.428;6.756;2022-09-09T07:53:56;7.17;;;2.70;;
15398;SDS011;7797;51.428;6.756;2022-09-09T07:56:25;7.37;;;2.47;;
15398;SDS011;7797;51.428;6.756;2022-09-09T07:58:53;9.03;;;2.40;;
15398;SDS011;7797;51.428;6.756;2022-09-09T08:01:22;6.13;;;2.60;;
15398;SDS011;7797;51.428;6.756;2022-09-09T08:03:53;3.93;;;2.10;;
15398;SDS011;7797;51.428;6.756;2022-09-09T08:06:22;5.80;;;2.47;;
15398;SDS011;7797;51.428;6.756;2022-09-09T08:08:50;5.47;;;2.43;;
15398;SDS011;7797;51.428;6.756;2022-09-09T08:11:17;4.00;;;1.93;;
15398;SDS011;7797;51.428;6.756;2022-09-09T08:13:44;4.63;;;2.07;;
15398;SDS011;7797;51.428;6.756;2022-09-09T08:16:15;4.07;;;1.67;;
15398;SDS011;7797;51.428;6.756;2022-09-09T08:18:43;4.63;;;2.20;;
15398;SDS011;7797;51.428;6.756;2022-09-09T08:21:12;5.13;;;1.70;;
15398;SDS011;7797;51.428;6.756;2022-09-09T08:23:40;4.23;;;1.50;;
15398;SDS011;7797;51.428;6.756;2022-09-09T08:26:12;4.00;;;1.50;;
15398;SDS011;7797;51.428;6.756;2022-09-09T08:28:41;3.57;;;1.67;;
15398;SDS011;7797;51.428;6.756;2022-09-09T08:31:12;3.57;;;1.57;;
15398;SDS011;7797;51.428;6.756;2022-09-09T08:33:41;2.90;;;1.50;;
15398;SDS011;7797;51.428;6.756;2022-09-09T08:36:10;3.20;;;1.60;;
15398;SDS011;7797;51.428;6.756;2022-09-09T08:38:37;4.37;;;1.60;;
15398;SDS011;7797;51.428;6.756;2022-09-09T08:43:47;3.63;;;1.33;;
15398;SDS011;7797;51.428;6.756;2022-09-09T08:46:22;4.70;;;1.53;;
15398;SDS011;7797;51.428;6.756;2022-09-09T08:48:57;1.90;;;1.40;;
15398;SDS011;7797;51.428;6.756;2022-09-09T08:51:29;4.23;;;1.50;;
15398;SDS011;7797;51.428;6.756;2022-09-09T08:53:57;3.87;;;1.57;;
15398;SDS011;7797;51.428;6.756;2022-09-09T08:56:26;4.37;;;1.90;;
15398;SDS011;7797;51.428;6.756;2022-09-09T08:58:55;3.93;;;1.70;;
15398;SDS011;7797;51.428;6.756;2022-09-09T09:11:40;2.93;;;1.53;;
15398;SDS011;7797;51.428;6.756;2022-09-09T09:14:22;3.80;;;1.70;;
15398;SDS011;7797;51.428;6.756;2022-09-09T09:16:58;5.27;;;2.47;;
15398;SDS011;7797;51.428;6.756;2022-09-09T09:19:33;6.13;;;4.30;;
15398;SDS011;7797;51.428;6.756;2022-09-09T09:22:06;9.37;;;3.80;;
15398;SDS011;7797;51.428;6.756;2022-09-09T09:27:34;7.43;;;2.80;;
15398;SDS011;7797;51.428;6.756;2022-09-09T09:30:12;3.67;;;2.30;;
15398;SDS011;7797;51.428;6.756;2022-09-09T09:33:02;3.50;;;2.10;;
15398;SDS011;7797;51.428;6.756;2022-09-09T09:35:35;5.87;;;1.90;;
15398;SDS011;7797;51.428;6.756;2022-09-09T09:38:17;4.90;;;1.37;;
15398;SDS011;7797;51.428;6.756;2022-09-09T09:41:06;4.37;;;1.60;;
15398;SDS011;7797;51.428;6.756;2022-09-09T09:43:34;4.70;;;2.03;;
15398;SDS011;7797;51.428;6.756;2022-09-09T09:46:05;3.60;;;1.53;;
15398;SDS011;7797;51.428;6.756;2022-09-09T09:49:00;4.70;;;2.70;;
15398;SDS011;7797;51.428;6.756;2022-09-09T09:51:32;4.00;;;2.00;;
15398;SDS011;7797;51.428;6.756;2022-09-09T09:56:52;5.23;;;2.90;;
15398;SDS011;7797;51.428;6.756;2022-09-09T09:59:20;2.87;;;1.80;;
15398;SDS011;7797;51.428;6.756;2022-09-09T10:04:44;5.40;;;2.37;;
15398;SDS011;7797;51.428;6.756;2022-09-09T10:07:18;3.47;;;2.20;;
15398;SDS011;7797;51.428;6.756;2022-09-09T10:09:51;3.97;;;1.80;;
15398;SDS011;7797;51.428;6.756;2022-09-09T10:20:50;3.63;;;1.20;;
15398;SDS011;7797;51.428;6.756;2022-09-09T10:23:46;1.30;;;1.20;;
15398;SDS011;7797;51.428;6.756;2022-09-09T10:29:10;4.27;;;1.70;;
15398;SDS011;7797;51.428;6.756;2022-09-09T10:35:09;1.60;;;1.30;;
15398;SDS011;7797;51.428;6.756;2022-09-09T10:43:46;2.40;;;1.33;;
15398;SDS011;7797;51.428;6.756;2022-09-09T10:46:36;3.33;;;1.67;;
15398;SDS011;7797;51.428;6.756;2022-09-09T10:49:37;3.63;;;2.10;;
15398;SDS011;7797;51.428;6.756;2022-09-09T10:52:30;5.67;;;2.20;;
15398;SDS011;7797;51.428;6.756;2022-09-09T11:00:19;5.40;;;2.23;;
15398;SDS011;7797;51.428;6.756;2022-09-09T11:02:51;2.40;;;1.80;;
15398;SDS011;7797;51.428;6.756;2022-09-09T11:07:54;2.53;;;1.60;;
15398;SDS011;7797;51.428;6.756;2022-09-09T11:10:44;1.77;;;1.67;;
15398;SDS011;7797;51.428;6.756;2022-09-09T11:13:23;1.93;;;1.50;;
15398;SDS011;7797;51.428;6.756;2022-09-09T11:15:54;2.27;;;1.60;;
15398;SDS011;7797;51.428;6.756;2022-09-09T11:18:41;1.97;;;1.50;;
15398;SDS011;7797;51.428;6.756;2022-09-09T11:21:12;5.67;;;1.93;;
15398;SDS011;7797;51.428;6.756;2022-09-09T11:23:45;3.40;;;2.03;;
15398;SDS011;7797;51.428;6.756;2022-09-09T11:26:17;3.47;;;1.80;;
15398;SDS011;7797;51.428;6.756;2022-09-09T11:31:34;5.00;;;2.00;;
15398;SDS011;7797;51.428;6.756;2022-09-09T11:40:07;2.70;;;1.40;;
15398;SDS011;7797;51.428;6.756;2022-09-09T11:42:40;3.03;;;1.50;;
15398;SDS011;7797;51.428;6.756;2022-09-09T11:45:09;3.13;;;1.60;;
15398;SDS011;7797;51.428;6.756;2022-09-09T11:47:57;2.57;;;1.33;;
15398;SDS011;7797;51.428;6.756;2022-09-09T11:53:02;2.97;;;1.40;;
15398;SDS011;7797;51.428;6.756;2022-09-09T11:58:42;2.80;;;1.40;;
15398;SDS011;7797;51.428;6.756;2022-09-09T12:01:12;1.77;;;1.30;;
15398;SDS011;7797;51.428;6.756;2022-09-09T12:03:50;2.10;;;1.20;;
15398;SDS011;7797;51.428;6.756;2022-09-09T12:06:20;2.70;;;1.60;;
15398;SDS011;7797;51.428;6.756;2022-09-09T12:08:57;3.43;;;1.77;;
15398;SDS011;7797;51.428;6.756;2022-09-09T12:11:31;4.17;;;1.97;;
15398;SDS011;7797;51.428;6.756;2022-09-09T12:13:58;2.07;;;1.47;;
15398;SDS011;7797;51.428;6.756;2022-09-09T12:16:30;2.83;;;1.70;;
15398;SDS011;7797;51.428;6.756;2022-09-09T12:19:05;3.77;;;1.83;;
15398;SDS011;7797;51.428;6.756;2022-09-09T12:24:54;2.53;;;1.23;;
15398;SDS011;7797;51.428;6.756;2022-09-09T12:27:36;1.80;;;1.10;;
15398;SDS011;7797;51.428;6.756;2022-09-09T12:30:10;3.20;;;1.20;;
15398;SDS011;7797;51.428;6.756;2022-09-09T12:32:39;2.43;;;1.10;;
15398;SDS011;7797;51.428;6.756;2022-09-09T12:35:22;3.60;;;1.40;;
15398;SDS011;7797;51.428;6.756;2022-09-09T12:37:53;2.37;;;1.10;;
15398;SDS011;7797;51.428;6.756;2022-09-09T12:40:29;2.17;;;1.10;;
15398;SDS011;7797;51.428;6.756;2022-09-09T12:42:58;2.37;;;1.20;;
15398;SDS011;7797;51.428;6.756;2022-09-09T12:45:27;4.33;;;1.27;;
15398;SDS011;7797;51.428;6.756;2022-09-09T12:50:25;1.43;;;1.30;;
15398;SDS011;7797;51.428;6.756;2022-09-09T12:52:54;1.43;;;1.27;;
15398;SDS011;7797;51.428;6.756;2022-09-09T12:55:27;4.93;;;1.30;;
15398;SDS011;7797;51.428;6.756;2022-09-09T12:57:56;3.53;;;1.40;;
15398;SDS011;7797;51.428;6.756;2022-09-09T13:00:25;2.63;;;1.50;;
15398;SDS011;7797;51.428;6.756;2022-09-09T13:02:54;1.53;;;1.43;;
15398;SDS011;7797;51.428;6.756;2022-09-09T13:05:26;2.50;;;1.30;;
15398;SDS011;7797;51.428;6.756;2022-09-09T13:08:04;3.43;;;1.70;;
15398;SDS011;7797;51.428;6.756;2022-09-09T13:10:36;2.90;;;1.40;;
15398;SDS011;7797;51.428;6.756;2022-09-09T13:13:22;2.83;;;1.67;;
15398;SDS011;7797;51.428;6.756;2022-09-09T13:15:51;3.73;;;1.70;;
15398;SDS011;7797;51.428;6.756;2022-09-09T13:18:23;3.00;;;1.70;;
15398;SDS011;7797;51.428;6.756;2022-09-09T13:20:53;2.63;;;1.60;;
15398;SDS011;7797;51.428;6.756;2022-09-09T13:23:20;1.53;;;1.43;;
15398;SDS011;7797;51.428;6.756;2022-09-09T13:25:57;2.43;;;1.40;;
15398;SDS011;7797;51.428;6.756;2022-09-09T13:28:27;3.93;;;1.70;;
15398;SDS011;7797;51.428;6.756;2022-09-09T13:31:00;2.60;;;1.50;;
15398;SDS011;7797;51.428;6.756;2022-09-09T13:33:36;2.90;;;1.60;;
15398;SDS011;7797;51.428;6.756;2022-09-09T13:36:05;3.10;;;1.60;;
15398;SDS011;7797;51.428;6.756;2022-09-09T13:38:37;2.53;;;1.80;;
15398;SDS011;7797;51.428;6.756;2022-09-09T13:41:09;1.90;;;1.60;;
15398;SDS011;7797;51.428;6.756;2022-09-09T13:43:37;1.50;;;1.40;;
15398;SDS011;7797;51.428;6.756;2022-09-09T13:51:50;3.57;;;1.50;;
15398;SDS011;7797;51.428;6.756;2022-09-09T13:54:20;1.60;;;1.43;;
15398;SDS011;7797;51.428;6.756;2022-09-09T13:56:47;2.97;;;1.50;;
15398;SDS011;7797;51.428;6.756;2022-09-09T13:59:17;3.63;;;1.97;;
15398;SDS011;7797;51.428;6.756;2022-09-09T14:02:07;2.20;;;1.80;;
15398;SDS011;7797;51.428;6.756;2022-09-09T14:04:34;2.07;;;1.77;;
15398;SDS011;7797;51.428;6.756;2022-09-09T14:07:01;3.00;;;2.30;;
15398;SDS011;7797;51.428;6.756;2022-09-09T14:09:28;5.87;;;2.43;;
15398;SDS011;7797;51.428;6.756;2022-09-09T14:11:55;7.37;;;2.67;;
15398;SDS011;7797;51.428;6.756;2022-09-09T14:14:21;4.33;;;2.77;;
15398;SDS011;7797;51.428;6.756;2022-09-09T14:16:48;4.70;;;2.67;;
15398;SDS011;7797;51.428;6.756;2022-09-09T14:19:14;4.43;;;1.90;;
15398;SDS011;7797;51.428;6.756;2022-09-09T14:21:44;4.00;;;1.53;;
15398;SDS011;7797;51.428;6.756;2022-09-09T14:24:11;2.27;;;1.57;;
15398;SDS011;7797;51.428;6.756;2022-09-09T14:26:38;3.37;;;1.53;;
15398;SDS011;7797;51.428;6.756;2022-09-09T14:29:05;2.10;;;1.30;;
15398;SDS011;7797;51.428;6.756;2022-09-09T14:31:32;2.70;;;1.33;;
15398;SDS011;7797;51.428;6.756;2022-09-09T14:33:58;4.90;;;1.60;;
15398;SDS011;7797;51.428;6.756;2022-09-09T14:36:25;2.87;;;1.20;;
15398;SDS011;7797;51.428;6.756;2022-09-09T14:38:52;3.03;;;0.90;;
15398;SDS011;7797;51.428;6.756;2022-09-09T14:41:19;2.43;;;0.70;;
15398;SDS011;7797;51.428;6.756;2022-09-09T14:43:46;2.60;;;1.10;;
15398;SDS011;7797;51.428;6.756;2022-09-09T14:46:14;3.83;;;1.00;;
15398;SDS011;7797;51.428;6.756;2022-09-09T14:48:42;2.23;;;0.50;;
15398;SDS011;7797;51.428;6.756;2022-09-09T14:51:12;1.17;;;0.90;;
15398;SDS011;7797;51.428;6.756;2022-09-09T14:53:42;1.63;;;1.00;;
15398;SDS011;7797;51.428;6.756;2022-09-09T14:56:10;2.00;;;1.10;;
15398;SDS011;7797;51.428;6.756;2022-09-09T14:58:39;1.03;;;0.90;;
15398;SDS011;7797;51.428;6.756;2022-09-09T15:01:16;1.60;;;0.77;;
15398;SDS011;7797;51.428;6.756;2022-09-09T15:03:54;0.90;;;0.90;;
15398;SDS011;7797;51.428;6.756;2022-09-09T15:06:31;0.97;;;0.90;;
15398;SDS011;7797;51.428;6.756;2022-09-09T15:08:59;0.87;;;0.87;;
15398;SDS011;7797;51.428;6.756;2022-09-09T15:11:27;1.73;;;0.80;;
15398;SDS011;7797;51.428;6.756;2022-09-09T15:13:56;2.80;;;1.37;;
15398;SDS011;7797;51.428;6.756;2022-09-09T15:16:25;1.03;;;1.03;;
15398;SDS011;7797;51.428;6.756;2022-09-09T15:18:54;2.03;;;1.40;;
15398;SDS011;7797;51.428;6.756;2022-09-09T15:21:23;1.10;;;0.80;;
15398;SDS011;7797;51.428;6.756;2022-09-09T15:23:51;3.03;;;1.37;;
15398;SDS011;7797;51.428;6.756;2022-09-09T15:26:18;1.53;;;1.43;;
15398;SDS011;7797;51.428;6.756;2022-09-09T15:28:47;2.80;;;1.90;;
15398;SDS011;7797;51.428;6.756;2022-09-09T15:31:16;3.13;;;2.47;;
15398;SDS011;7797;51.428;6.756;2022-09-09T15:33:58;2.90;;;2.30;;
15398;SDS011;7797;51.428;6.756;2022-09-09T15:36:30;2.77;;;2.40;;
15398;SDS011;7797;51.428;6.756;2022-09-09T15:39:00;2.97;;;2.20;;
15398;SDS011;7797;51.428;6.756;2022-09-09T15:41:28;2.27;;;1.87;;
15398;SDS011;7797;51.428;6.756;2022-09-09T15:43:57;2.00;;;1.90;;
15398;SDS011;7797;51.428;6.756;2022-09-09T15:46:35;1.60;;;1.47;;
15398;SDS011;7797;51.428;6.756;2022-09-09T15:49:04;1.43;;;1.00;;
15398;SDS011;7797;51.428;6.756;2022-09-09T15:51:40;2.00;;;1.10;;
15398;SDS011;7797;51.428;6.756;2022-09-09T15:54:11;1.50;;;1.30;;
15398;SDS011;7797;51.428;6.756;2022-09-09T15:56:40;1.13;;;1.03;;
15398;SDS011;7797;51.428;6.756;2022-09-09T15:59:07;1.30;;;1.20;;
15398;SDS011;7797;51.428;6.756;2022-09-09T16:01:34;2.17;;;1.30;;
15398;SDS011;7797;51.428;6.756;2022-09-09T16:04:01;1.60;;;1.50;;
15398;SDS011;7797;51.428;6.756;2022-09-09T16:06:29;1.63;;;1.33;;
15398;SDS011;7797;51.428;6.756;2022-09-09T16:08:56;1.20;;;1.10;;
15398;SDS011;7797;51.428;6.756;2022-09-09T16:11:28;2.70;;;1.30;;
15398;SDS011;7797;51.428;6.756;2022-09-09T16:13:57;1.20;;;1.10;;
15398;SDS011;7797;51.428;6.756;2022-09-09T16:16:25;2.27;;;1.40;;
15398;SDS011;7797;51.428;6.756;2022-09-09T16:18:56;3.23;;;1.43;;
15398;SDS011;7797;51.428;6.756;2022-09-09T16:21:34;1.23;;;1.23;;
15398;SDS011;7797;51.428;6.756;2022-09-09T16:24:04;1.37;;;1.27;;
15398;SDS011;7797;51.428;6.756;2022-09-09T16:26:34;1.20;;;1.10;;
15398;SDS011;7797;51.428;6.756;2022-09-09T16:29:02;1.67;;;1.13;;
15398;SDS011;7797;51.428;6.756;2022-09-09T16:31:29;1.53;;;1.43;;
15398;SDS011;7797;51.428;6.756;2022-09-09T16:33:58;3.07;;;1.50;;
15398;SDS011;7797;51.428;6.756;2022-09-09T16:36:26;1.20;;;1.20;;
15398;SDS011;7797;51.428;6.756;2022-09-09T16:38:54;1.73;;;1.50;;
15398;SDS011;7797;51.428;6.756;2022-09-09T16:41:24;2.47;;;1.60;;
15398;SDS011;7797;51.428;6.756;2022-09-09T16:43:58;2.10;;;1.60;;
15398;SDS011;7797;51.428;6.756;2022-09-09T16:46:26;2.00;;;1.70;;
15398;SDS011;7797;51.428;6.756;2022-09-09T16:48:55;2.33;;;1.60;;
15398;SDS011;7797;51.428;6.756;2022-09-09T16:51:25;1.70;;;1.60;;
15398;SDS011;7797;51.428;6.756;2022-09-09T16:53:57;1.83;;;1.73;;
15398;SDS011;7797;51.428;6.756;2022-09-09T16:56:25;2.10;;;1.90;;
15398;SDS011;7797;51.428;6.756;2022-09-09T16:58:54;2.47;;;1.90;;
15398;SDS011;7797;51.428;6.756;2022-09-09T17:01:26;3.47;;;2.10;;
15398;SDS011;7797;51.428;6.756;2022-09-09T17:03:58;3.77;;;2.00;;
15398;SDS011;7797;51.428;6.756;2022-09-09T17:06:29;2.40;;;1.90;;
15398;SDS011;7797;51.428;6.756;2022-09-09T17:08:57;2.57;;;1.80;;
15398;SDS011;7797;51.428;6.756;2022-09-09T17:11:25;2.13;;;1.93;;
15398;SDS011;7797;51.428;6.756;2022-09-09T17:13:52;3.93;;;2.00;;